createdAt,value
2023-09-07T00:01:07.549Z,84.60
2023-09-07T00:03:34.698Z,84.60
2023-09-07T00:06:02.330Z,84.70
2023-09-07T00:08:29.636Z,84.70
2023-09-07T00:10:56.915Z,84.80
2023-09-07T00:13:23.936Z,84.90
2023-09-07T00:15:51.229Z,85.00
2023-09-07T00:18:20.282Z,85.00
2023-09-07T00:20:47.510Z,85.10
2023-09-07T00:23:14.647Z,85.20
2023-09-07T00:25:41.739Z,85.30
2023-09-07T00:28:08.769Z,85.40
2023-09-07T00:30:36.024Z,85.40
2023-09-07T00:33:03.027Z,85.50
2023-09-07T00:35:30.131Z,85.60
2023-09-07T00:37:57.139Z,85.60
2023-09-07T00:40:27.590Z,85.70
2023-09-07T00:42:55.180Z,85.70
2023-09-07T00:45:22.162Z,85.70
2023-09-07T00:47:49.165Z,85.80
2023-09-07T00:50:17.705Z,85.90
2023-09-07T00:52:44.938Z,85.90
2023-09-07T00:55:12.035Z,86.00
2023-09-07T00:57:40.898Z,86.00
2023-09-07T01:00:08.939Z,86.00
2023-09-07T01:02:36.466Z,86.10
2023-09-07T01:05:06.776Z,86.20
2023-09-07T01:07:46.677Z,86.20
2023-09-07T01:10:14.550Z,86.30
2023-09-07T01:12:42.020Z,86.20
2023-09-07T01:15:09.825Z,86.30
2023-09-07T01:17:37.424Z,86.30
2023-09-07T01:20:10.731Z,86.30
2023-09-07T01:22:38.730Z,86.40
2023-09-07T01:25:08.051Z,86.50
2023-09-07T01:27:35.542Z,86.50
2023-09-07T01:30:03.969Z,86.60
2023-09-07T01:32:31.111Z,86.60
2023-09-07T01:34:59.094Z,86.70
2023-09-07T01:37:26.442Z,86.70
2023-09-07T01:39:53.631Z,86.80
2023-09-07T01:42:23.105Z,86.90
2023-09-07T01:44:50.325Z,86.90
2023-09-07T01:47:17.612Z,87.00
2023-09-07T01:49:44.792Z,87.00
2023-09-07T01:52:11.741Z,87.10
2023-09-07T01:54:38.998Z,87.10
2023-09-07T01:57:08.457Z,87.00
2023-09-07T01:59:36.665Z,87.60
2023-09-07T02:02:06.394Z,87.10
2023-09-07T02:04:34.830Z,87.20
2023-09-07T02:07:01.853Z,87.20
2023-09-07T02:09:28.899Z,87.30
2023-09-07T02:11:57.090Z,87.30
2023-09-07T02:14:24.235Z,87.30
2023-09-07T02:16:52.066Z,87.40
2023-09-07T02:19:19.302Z,87.40
2023-09-07T02:21:46.380Z,87.50
2023-09-07T02:24:13.431Z,87.50
2023-09-07T02:26:46.450Z,87.50
2023-09-07T02:29:14.173Z,87.60
2023-09-07T02:31:41.852Z,87.60
2023-09-07T02:34:09.059Z,87.60
2023-09-07T02:36:37.006Z,87.70
2023-09-07T02:39:04.830Z,87.70
2023-09-07T02:41:32.942Z,87.80
2023-09-07T02:44:00.008Z,87.80
2023-09-07T02:46:27.098Z,87.80
2023-09-07T02:48:58.215Z,87.80
2023-09-07T02:51:25.913Z,87.90
2023-09-07T02:53:53.220Z,87.90
2023-09-07T02:56:20.214Z,87.90
2023-09-07T02:58:49.702Z,87.90
2023-09-07T03:01:22.856Z,87.90
2023-09-07T03:03:50.407Z,88.00
2023-09-07T03:06:18.017Z,88.00
2023-09-07T03:08:45.121Z,88.50
2023-09-07T03:11:14.686Z,88.10
2023-09-07T03:13:43.804Z,88.10
2023-09-07T03:16:11.588Z,88.10
2023-09-07T03:18:38.720Z,88.20
2023-09-07T03:21:08.952Z,88.20
2023-09-07T03:23:36.014Z,88.20
2023-09-07T03:26:03.030Z,88.20
2023-09-07T03:28:30.479Z,88.20
2023-09-07T03:30:57.808Z,88.20
2023-09-07T03:33:24.933Z,88.20
2023-09-07T03:35:53.157Z,88.30
2023-09-07T03:38:23.305Z,88.30
2023-09-07T03:40:54.465Z,88.30
2023-09-07T03:43:21.707Z,88.40
2023-09-07T03:45:48.910Z,88.40
2023-09-07T03:48:15.987Z,88.50
2023-09-07T03:50:42.955Z,88.50
2023-09-07T03:53:09.976Z,88.50
2023-09-07T03:55:43.511Z,88.50
2023-09-07T03:58:11.283Z,88.60
2023-09-07T04:00:42.338Z,88.60
2023-09-07T04:03:09.841Z,88.50
2023-09-07T04:05:40.321Z,88.50
2023-09-07T04:08:07.704Z,88.50
2023-09-07T04:10:39.664Z,88.60
2023-09-07T04:13:07.602Z,88.60
2023-09-07T04:15:35.733Z,88.60
2023-09-07T04:18:09.927Z,88.60
2023-09-07T04:20:36.957Z,88.70
2023-09-07T04:23:04.214Z,88.70
2023-09-07T04:25:31.335Z,88.70
2023-09-07T04:27:58.354Z,88.70
2023-09-07T04:30:26.483Z,88.70
2023-09-07T04:32:53.873Z,88.70
2023-09-07T04:35:20.945Z,88.80
2023-09-07T04:37:48.002Z,88.80
2023-09-07T04:40:15.386Z,88.80
2023-09-07T04:42:42.361Z,88.80
2023-09-07T04:45:10.138Z,88.90
2023-09-07T04:47:38.408Z,88.80
2023-09-07T04:50:06.212Z,88.80
2023-09-07T04:52:33.443Z,88.80
2023-09-07T04:55:00.537Z,88.90
2023-09-07T04:57:27.497Z,88.80
2023-09-07T04:59:57.508Z,88.90
2023-09-07T05:02:24.658Z,88.90
2023-09-07T05:04:51.680Z,88.90
2023-09-07T05:07:18.666Z,88.90
2023-09-07T05:09:45.747Z,88.90
2023-09-07T05:12:12.907Z,88.90
2023-09-07T05:14:39.925Z,89.00
2023-09-07T05:17:07.019Z,89.00
2023-09-07T05:19:34.001Z,88.90
2023-09-07T05:22:01.165Z,89.00
2023-09-07T05:24:28.143Z,89.00
2023-09-07T05:26:55.179Z,89.00
2023-09-07T05:29:23.046Z,89.10
2023-09-07T05:31:50.103Z,89.10
2023-09-07T05:34:17.200Z,89.10
2023-09-07T05:36:44.264Z,89.10
2023-09-07T05:39:11.332Z,89.10
2023-09-07T05:41:38.458Z,89.00
2023-09-07T05:44:05.881Z,89.10
2023-09-07T05:46:33.019Z,89.10
2023-09-07T05:49:00.154Z,89.10
2023-09-07T05:51:27.235Z,89.10
2023-09-07T05:53:56.515Z,89.10
2023-09-07T05:56:23.804Z,89.10
2023-09-07T05:58:50.875Z,89.10
2023-09-07T06:01:17.976Z,89.10
2023-09-07T06:03:45.394Z,89.10
2023-09-07T06:06:12.776Z,89.10
2023-09-07T06:08:40.990Z,89.10
2023-09-07T06:11:08.063Z,89.10
2023-09-07T06:13:35.330Z,89.10
2023-09-07T06:16:02.681Z,89.10
2023-09-07T06:18:30.458Z,89.00
2023-09-07T06:20:58.895Z,89.00
2023-09-07T06:23:26.167Z,88.90
2023-09-07T06:25:53.246Z,89.00
2023-09-07T06:28:20.292Z,88.90
2023-09-07T06:30:47.350Z,89.40
2023-09-07T06:33:14.395Z,88.90
2023-09-07T06:35:41.555Z,89.00
2023-09-07T06:38:08.618Z,88.90
2023-09-07T06:40:35.606Z,88.90
2023-09-07T06:43:06.616Z,89.00
2023-09-07T06:45:37.211Z,89.00
2023-09-07T06:48:05.258Z,89.00
2023-09-07T06:50:32.491Z,89.00
2023-09-07T06:53:58.143Z,89.00
2023-09-07T06:56:27.314Z,89.10
2023-09-07T06:59:05.022Z,88.90
2023-09-07T07:01:35.236Z,88.90
2023-09-07T07:04:05.171Z,88.90
2023-09-07T07:06:32.406Z,88.80
2023-09-07T07:09:02.232Z,88.70
2023-09-07T07:11:29.445Z,88.70
2023-09-07T07:13:56.538Z,88.70
2023-09-07T07:16:26.004Z,88.50
2023-09-07T07:18:53.435Z,88.50
2023-09-07T07:21:20.662Z,88.40
2023-09-07T07:23:48.312Z,88.30
2023-09-07T07:26:15.532Z,88.20
2023-09-07T07:28:44.153Z,88.10
2023-09-07T07:31:13.734Z,88.00
2023-09-07T07:33:45.995Z,88.00
2023-09-07T07:40:08.072Z,87.80
2023-09-07T07:42:35.117Z,87.60
2023-09-07T07:45:02.153Z,87.50
2023-09-07T07:47:29.777Z,87.30
2023-09-07T07:49:56.809Z,87.20
2023-09-07T07:52:23.732Z,87.00
2023-09-07T07:54:50.906Z,87.00
2023-09-07T07:57:17.920Z,86.80
2023-09-07T07:59:44.937Z,86.70
2023-09-07T08:02:11.934Z,86.50
2023-09-07T08:04:39.052Z,86.40
2023-09-07T08:07:06.802Z,86.20
2023-09-07T08:09:33.881Z,86.00
2023-09-07T08:12:03.880Z,85.90
2023-09-07T08:14:30.900Z,85.80
2023-09-07T08:16:58.372Z,85.60
2023-09-07T08:19:25.754Z,85.50
2023-09-07T08:21:52.884Z,85.30
2023-09-07T08:24:19.870Z,85.10
2023-09-07T08:26:46.979Z,84.90
2023-09-07T08:29:14.053Z,84.80
2023-09-07T08:31:41.174Z,84.60
2023-09-07T08:34:11.194Z,84.50
2023-09-07T08:36:38.419Z,84.20
2023-09-07T08:39:11.171Z,84.10
2023-09-07T08:42:00.690Z,83.90
2023-09-07T08:44:29.865Z,83.70
2023-09-07T08:46:56.997Z,83.40
2023-09-07T08:49:27.051Z,83.20
2023-09-07T08:51:54.453Z,82.90
2023-09-07T08:54:21.583Z,82.70
2023-09-07T08:56:48.802Z,82.50
2023-09-07T08:59:17.301Z,82.20
2023-09-07T09:01:44.679Z,81.90
2023-09-07T09:04:12.059Z,81.60
2023-09-07T09:06:39.356Z,81.80
2023-09-07T09:09:07.103Z,81.10
2023-09-07T09:11:34.196Z,81.50
2023-09-07T09:14:01.295Z,80.70
2023-09-07T09:16:29.937Z,80.50
2023-09-07T09:18:58.191Z,80.30
2023-09-07T09:21:28.994Z,80.10
2023-09-07T09:23:58.230Z,79.80
2023-09-07T09:26:27.950Z,79.60
2023-09-07T09:28:57.825Z,79.30
2023-09-07T09:31:26.346Z,79.20
2023-09-07T09:33:53.870Z,78.80
2023-09-07T09:36:21.510Z,78.80
2023-09-07T09:38:54.311Z,78.70
2023-09-07T09:41:22.482Z,78.50
2023-09-07T09:43:53.787Z,78.30
2023-09-07T09:46:21.167Z,78.10
2023-09-07T09:48:53.665Z,77.80
2023-09-07T09:51:20.877Z,77.50
2023-09-07T09:53:47.918Z,77.40
2023-09-07T09:56:17.833Z,77.20
2023-09-07T09:58:44.947Z,76.90
2023-09-07T10:01:25.817Z,76.70
2023-09-07T10:03:53.123Z,76.40
2023-09-07T10:06:24.355Z,76.20
2023-09-07T10:09:17.743Z,75.90
2023-09-07T10:11:44.863Z,75.50
2023-09-07T10:14:14.558Z,75.30
2023-09-07T10:16:49.834Z,75.10
2023-09-07T10:19:18.278Z,74.90
2023-09-07T10:21:54.176Z,74.50
2023-09-07T10:24:30.430Z,74.30
2023-09-07T10:27:04.453Z,74.10
2023-09-07T10:29:42.358Z,73.80
2023-09-07T10:32:12.231Z,73.50
2023-09-07T10:34:44.281Z,73.30
2023-09-07T10:37:16.539Z,73.00
2023-09-07T10:39:44.747Z,72.70
2023-09-07T10:42:25.492Z,72.50
2023-09-07T10:44:53.281Z,72.20
2023-09-07T10:47:22.778Z,72.00
2023-09-07T10:49:49.939Z,71.70
2023-09-07T10:52:17.069Z,71.40
2023-09-07T10:54:47.339Z,71.20
2023-09-07T10:57:22.026Z,70.90
2023-09-07T11:00:00.832Z,70.50
2023-09-07T11:03:24.532Z,70.50
2023-09-07T11:05:57.973Z,70.30
2023-09-07T11:08:54.273Z,70.10
2023-09-07T11:11:29.228Z,70.10
2023-09-07T11:13:58.683Z,70.00
2023-09-07T11:16:27.018Z,69.80
2023-09-07T11:18:55.831Z,69.60
2023-09-07T11:21:23.846Z,69.50
2023-09-07T11:23:58.612Z,69.40
2023-09-07T11:26:54.915Z,69.10
2023-09-07T11:29:36.751Z,68.80
2023-09-07T11:32:23.137Z,68.70
2023-09-07T11:35:32.321Z,68.50
2023-09-07T11:38:39.898Z,68.30
2023-09-07T11:41:18.451Z,68.30
2023-09-07T11:43:52.080Z,68.20
2023-09-07T11:54:07.904Z,67.60
2023-09-07T12:00:16.912Z,67.30
2023-09-07T12:02:50.149Z,67.20
2023-09-07T12:05:24.086Z,67.10
2023-09-07T12:07:52.272Z,67.00
2023-09-07T12:10:19.383Z,66.90
2023-09-07T12:12:48.513Z,66.70
2023-09-07T12:15:18.598Z,66.60
2023-09-07T12:17:45.878Z,66.60
2023-09-07T12:20:17.276Z,66.50
2023-09-07T12:22:44.304Z,66.40
2023-09-07T12:25:16.225Z,66.30
2023-09-07T12:30:28.078Z,66.20
2023-09-07T12:32:55.232Z,66.00
2023-09-07T12:35:22.529Z,65.90
2023-09-07T12:37:53.558Z,65.90
2023-09-07T12:40:20.561Z,65.70
2023-09-07T12:42:58.080Z,65.50
2023-09-07T12:45:25.521Z,65.20
2023-09-07T12:47:55.596Z,65.00
2023-09-07T12:50:31.764Z,64.90
2023-09-07T12:53:01.946Z,64.60
2023-09-07T12:58:04.911Z,64.30
2023-09-07T13:00:32.478Z,64.20
2023-09-07T13:03:00.197Z,64.00
2023-09-07T13:05:27.280Z,63.70
2023-09-07T13:07:55.750Z,63.30
2023-09-07T13:10:22.979Z,63.20
2023-09-07T13:12:49.876Z,63.20
2023-09-07T13:15:16.900Z,63.00
2023-09-07T13:17:44.288Z,62.90
2023-09-07T13:20:13.649Z,62.70
2023-09-07T13:56:38.276Z,61.40
2023-09-07T13:59:06.123Z,61.30
2023-09-07T14:09:28.068Z,60.80
2023-09-07T14:35:38.143Z,60.60
2023-09-07T14:38:07.615Z,60.40
2023-09-07T14:40:43.846Z,60.40
2023-09-07T14:43:14.236Z,60.30
2023-09-07T14:45:45.724Z,60.10
2023-09-07T14:48:13.383Z,60.00
2023-09-07T14:50:47.987Z,60.00
2023-09-07T14:56:26.016Z,59.50
2023-09-07T14:59:24.297Z,59.40
2023-09-07T15:05:17.228Z,59.40
2023-09-07T15:07:55.247Z,59.30
2023-09-07T15:10:28.968Z,59.30
2023-09-07T15:13:15.207Z,59.30
2023-09-07T15:15:58.372Z,59.20
2023-09-07T15:18:28.266Z,59.10
2023-09-07T15:20:55.803Z,59.00
2023-09-07T15:23:37.948Z,58.90
2023-09-07T15:26:46.902Z,58.80
2023-09-07T15:29:34.759Z,58.70
2023-09-07T15:32:07.331Z,58.70
2023-09-07T15:34:45.812Z,58.40
2023-09-07T15:40:41.629Z,58.10
2023-09-07T15:47:30.250Z,58.10
2023-09-07T16:05:20.965Z,58.20
2023-09-07T16:07:54.051Z,58.20
2023-09-07T16:14:12.817Z,58.00
2023-09-07T16:17:19.221Z,57.80
2023-09-07T16:22:56.902Z,57.60
2023-09-07T16:25:38.598Z,57.60
2023-09-07T16:28:10.561Z,57.30
2023-09-07T16:30:37.593Z,57.40
2023-09-07T16:36:48.520Z,57.30
2023-09-07T16:39:54.991Z,57.30
2023-09-07T16:42:59.103Z,57.20
2023-09-07T16:45:28.863Z,57.30
2023-09-07T17:15:35.362Z,58.50
2023-09-07T17:19:13.770Z,58.60
2023-09-07T17:22:50.466Z,58.90
2023-09-07T17:26:16.285Z,59.20
2023-09-07T17:33:42.849Z,59.60
2023-09-07T17:40:06.674Z,60.10
2023-09-07T17:42:39.272Z,60.10
2023-09-07T17:45:07.029Z,60.30
2023-09-07T17:47:34.724Z,60.50
2023-09-07T17:50:07.149Z,60.70
2023-09-07T17:52:40.907Z,60.90
2023-09-07T17:55:19.225Z,61.00
2023-09-07T17:57:49.352Z,61.20
2023-09-07T18:00:19.247Z,61.40
2023-09-07T18:06:44.824Z,61.80
2023-09-07T18:09:31.073Z,61.90
2023-09-07T18:12:08.067Z,62.20
2023-09-07T18:14:56.424Z,62.40
2023-09-07T18:17:41.148Z,62.60
2023-09-07T18:20:09.424Z,62.80
2023-09-07T18:22:37.089Z,63.00
2023-09-07T18:25:04.175Z,63.20
2023-09-07T18:27:31.409Z,63.50
2023-09-07T18:30:02.093Z,63.70
2023-09-07T18:32:31.982Z,64.00
2023-09-07T18:38:19.838Z,64.40
2023-09-07T18:40:57.821Z,64.70
2023-09-07T18:44:25.316Z,64.80
2023-09-07T18:46:27.687Z,65.00
2023-09-07T18:48:54.996Z,65.30
2023-09-07T18:51:22.089Z,65.50
2023-09-07T18:53:49.916Z,65.70
2023-09-07T18:56:19.754Z,66.00
2023-09-07T18:58:56.227Z,66.30
2023-09-07T19:01:59.900Z,66.70
2023-09-07T19:04:29.753Z,67.10
2023-09-07T19:07:15.195Z,67.30
2023-09-07T19:09:55.642Z,67.60
2023-09-07T19:12:25.885Z,67.80
2023-09-07T19:14:53.203Z,68.10
2023-09-07T19:17:22.357Z,68.40
2023-09-07T19:19:50.262Z,68.70
2023-09-07T19:22:21.515Z,68.80
2023-09-07T19:24:48.760Z,69.10
2023-09-07T19:27:15.727Z,69.30
2023-09-07T19:29:44.404Z,69.50
2023-09-07T19:32:11.439Z,69.70
2023-09-07T19:34:54.518Z,69.90
2023-09-07T19:37:22.285Z,70.20
2023-09-07T19:39:49.463Z,70.30
2023-09-07T19:42:16.485Z,70.50
2023-09-07T19:44:43.739Z,70.70
2023-09-07T19:47:11.288Z,70.90
2023-09-07T19:49:44.721Z,71.10
2023-09-07T20:02:44.378Z,71.90
2023-09-07T20:05:33.416Z,72.00
2023-09-07T20:08:37.117Z,72.30
2023-09-07T20:11:34.188Z,72.60
2023-09-07T20:15:21.891Z,72.80
2023-09-07T20:17:51.771Z,73.00
2023-09-07T20:20:57.109Z,73.10
2023-09-07T20:24:00.386Z,73.50
2023-09-07T20:26:11.986Z,73.60
2023-09-07T20:28:43.636Z,73.70
2023-09-07T20:34:51.358Z,74.40
2023-09-07T20:37:18.699Z,74.30
2023-09-07T20:39:45.754Z,74.50
2023-09-07T20:42:13.877Z,74.60
2023-09-07T20:44:41.010Z,74.70
2023-09-07T20:47:10.979Z,74.80
2023-09-07T20:49:38.429Z,74.80
2023-09-07T20:52:06.266Z,74.90
2023-09-07T20:54:33.361Z,75.00
2023-09-07T20:57:00.857Z,75.00
2023-09-07T20:59:31.273Z,75.10
2023-09-07T21:01:58.352Z,75.30
2023-09-07T21:04:25.631Z,75.30
2023-09-07T21:06:52.784Z,75.30
2023-09-07T21:09:22.353Z,75.40
2023-09-07T21:11:49.499Z,75.50
2023-09-07T21:14:20.826Z,75.50
2023-09-07T21:16:47.763Z,75.60
2023-09-07T21:19:14.725Z,75.60
2023-09-07T21:21:44.702Z,75.60
2023-09-07T21:24:11.760Z,75.70
2023-09-07T21:26:38.792Z,75.60
2023-09-07T21:29:05.895Z,76.30
2023-09-07T21:31:32.963Z,75.70
2023-09-07T21:34:00.041Z,75.90
2023-09-07T21:36:27.121Z,75.90
2023-09-07T21:38:54.135Z,75.90
2023-09-07T21:41:21.131Z,76.00
2023-09-07T21:43:48.109Z,76.00
2023-09-07T21:46:15.110Z,76.10
2023-09-07T21:48:44.022Z,76.20
2023-09-07T21:51:11.036Z,76.20
2023-09-07T21:53:39.943Z,76.30
2023-09-07T21:56:07.091Z,76.40
2023-09-07T21:58:34.449Z,76.40
2023-09-07T22:01:01.608Z,76.60
2023-09-07T22:03:28.976Z,76.60
2023-09-07T22:05:56.157Z,76.70
2023-09-07T22:08:24.372Z,76.80
2023-09-07T22:10:51.396Z,76.90
2023-09-07T22:13:18.569Z,77.00
2023-09-07T22:15:45.649Z,77.10
2023-09-07T22:18:12.875Z,77.20
2023-09-07T22:20:39.962Z,77.30
2023-09-07T22:23:08.326Z,77.40
2023-09-07T22:25:35.384Z,77.50
2023-09-07T22:28:02.379Z,77.60
2023-09-07T22:30:29.443Z,77.70
2023-09-07T22:32:56.607Z,77.80
2023-09-07T22:35:23.639Z,77.90
2023-09-07T22:37:50.591Z,78.00
2023-09-07T22:40:17.768Z,78.10
2023-09-07T22:42:45.691Z,78.20
2023-09-07T22:45:14.504Z,78.30
2023-09-07T22:47:41.803Z,78.80
2023-09-07T22:50:09.113Z,78.40
2023-09-07T22:52:36.318Z,78.50
2023-09-07T22:55:08.159Z,78.60
2023-09-07T22:57:37.346Z,78.70
2023-09-07T23:00:07.533Z,78.80
2023-09-07T23:02:34.750Z,78.90
2023-09-07T23:05:01.903Z,79.00
2023-09-07T23:07:28.965Z,79.00
2023-09-07T23:09:56.576Z,79.10
2023-09-07T23:12:25.302Z,79.20
2023-09-07T23:14:54.124Z,79.30
2023-09-07T23:17:21.173Z,79.30
2023-09-07T23:19:48.205Z,79.40
2023-09-07T23:22:15.229Z,79.50
2023-09-07T23:24:42.225Z,79.50
2023-09-07T23:27:09.275Z,79.60
2023-09-07T23:29:36.300Z,80.20
2023-09-07T23:32:03.448Z,79.80
2023-09-07T23:34:31.112Z,79.80
2023-09-07T23:36:58.962Z,79.90
2023-09-07T23:39:25.991Z,79.90
2023-09-07T23:41:53.028Z,80.00
2023-09-07T23:44:20.005Z,80.00
2023-09-07T23:46:47.059Z,80.00
2023-09-07T23:49:14.188Z,80.10
2023-09-07T23:51:41.300Z,80.20
2023-09-07T23:54:09.241Z,80.20
2023-09-07T23:56:36.382Z,80.30
2023-09-07T23:59:03.323Z,80.30
